Time;durP1;ratioP1;P1;durP2;ratioP2;P2;SDS_P1;SDS_P2;PMS_P1;PMS_P2;Temp;Humidity;BMP_temperature;BMP_pressure;BME280_temperature;BME280_humidity;BME280_pressure;Samples;Min_cycle;Max_cycle;Signal;HPM_P1;HPM_P2
2023/03/17 00:01:43;;;;;;;5.53;2.88;;;;;;;5.32;100.00;100793.09;10342549;28;20057;-77
2023/03/17 00:06:44;;;;;;;4.57;2.92;;;;;;;5.35;100.00;100786.34;10391817;28;20044;-77
2023/03/17 00:11:44;;;;;;;5.00;2.75;;;;;;;5.34;100.00;100774.59;10364302;28;20374;-77
2023/03/17 00:16:48;;;;;;;5.00;2.63;;;;;;;5.41;100.00;100791.75;10389986;28;20037;-74
2023/03/17 00:21:49;;;;;;;10.77;3.08;;;;;;;5.49;100.00;100793.38;10349464;28;20038;-78
2023/03/17 00:26:49;;;;;;;4.35;2.78;;;;;;;5.57;100.00;100789.53;10366066;28;20037;-77
2023/03/17 00:31:50;;;;;;;5.43;3.13;;;;;;;5.52;100.00;100762.91;10406966;28;20037;-72
2023/03/17 00:36:50;;;;;;;4.30;3.20;;;;;;;5.65;100.00;100787.34;10359531;28;21489;-77
2023/03/17 00:41:51;;;;;;;6.78;3.13;;;;;;;5.56;100.00;100782.38;10373575;28;20052;-77
2023/03/17 00:46:52;;;;;;;6.25;3.92;;;;;;;5.63;100.00;100791.38;10388896;28;20485;-77
2023/03/17 00:51:53;;;;;;;5.25;3.00;;;;;;;5.57;100.00;100778.59;10372980;28;20137;-77
2023/03/17 00:56:53;;;;;;;4.63;3.22;;;;;;;5.63;100.00;100789.47;10332316;28;20065;-75
2023/03/17 01:01:54;;;;;;;6.13;3.53;;;;;;;5.63;100.00;100777.72;10291667;28;20053;-77
2023/03/17 01:06:54;;;;;;;4.22;2.80;;;;;;;5.77;100.00;100800.28;10332764;28;20073;-77
2023/03/17 01:11:55;;;;;;;6.30;3.50;;;;;;;5.72;100.00;100792.75;10320031;28;20049;-78
2023/03/17 01:16:55;;;;;;;5.43;3.90;;;;;;;5.70;100.00;100783.09;10370012;28;20642;-72
2023/03/17 01:21:56;;;;;;;7.35;3.67;;;;;;;5.75;100.00;100778.66;10405142;28;20060;-77
2023/03/17 01:26:57;;;;;;;10.90;3.97;;;;;;;5.64;100.00;100769.31;10402254;28;20060;-77
2023/03/17 01:31:57;;;;;;;7.40;3.25;;;;;;;5.56;100.00;100728.63;10389489;28;20053;-77
2023/03/17 01:36:58;;;;;;;7.10;3.65;;;;;;;5.66;100.00;100739.00;10372747;28;20073;-76
2023/03/17 01:42:00;;;;;;;6.80;3.50;;;;;;;5.61;100.00;100742.44;10371623;28;20529;-77
2023/03/17 01:47:01;;;;;;;5.70;3.88;;;;;;;5.58;100.00;100731.97;10385549;28;20493;-77
2023/03/17 01:52:13;;;;;;;5.60;3.80;;;;;;;5.44;100.00;100725.78;10387661;28;20167;-77
2023/03/17 01:57:35;;;;;;;8.48;4.20;;;;;;;5.57;100.00;100729.44;10405312;28;20037;-77
2023/03/17 02:02:39;;;;;;;4.97;3.65;;;;;;;5.46;100.00;100720.94;10405791;28;20497;-78
2023/03/17 02:07:40;;;;;;;8.55;5.05;;;;;;;5.52;100.00;100724.66;10379219;28;20049;-76
2023/03/17 02:12:41;;;;;;;6.70;4.22;;;;;;;5.44;100.00;100703.94;10411185;28;20049;-77
2023/03/17 02:17:41;;;;;;;5.18;3.53;;;;;;;5.53;100.00;100712.69;10394627;28;20042;-77
2023/03/17 02:22:51;;;;;;;6.75;3.63;;;;;;;5.44;100.00;100703.94;10349166;28;20033;-77
2023/03/17 02:27:55;;;;;;;7.07;3.80;;;;;;;5.52;100.00;100704.69;10367691;28;20041;-77
2023/03/17 02:32:56;;;;;;;6.75;3.67;;;;;;;5.47;100.00;100708.13;10378326;28;20025;-77
2023/03/17 02:37:56;;;;;;;4.95;3.13;;;;;;;5.36;100.00;100678.84;10411287;28;20037;-77
2023/03/17 02:42:58;;;;;;;7.57;4.22;;;;;;;5.34;100.00;100698.16;10384117;28;20160;-77
2023/03/17 02:47:58;;;;;;;6.93;3.75;;;;;;;5.24;100.00;100698.66;10324809;28;20035;-77
2023/03/17 02:52:59;;;;;;;4.82;3.33;;;;;;;5.02;100.00;100689.19;10300719;28;20054;-77
2023/03/17 02:58:01;;;;;;;5.70;3.85;;;;;;;4.96;100.00;100707.31;10297725;28;20387;-77
2023/03/17 03:03:02;;;;;;;5.10;3.63;;;;;;;4.89;100.00;100672.94;10397238;28;20411;-77
2023/03/17 03:08:03;;;;;;;5.72;3.35;;;;;;;4.96;100.00;100679.16;10409451;28;20037;-71
2023/03/17 03:13:03;;;;;;;5.90;3.72;;;;;;;5.02;100.00;100678.28;10374760;28;20033;-77
2023/03/17 03:18:04;;;;;;;5.13;3.65;;;;;;;5.13;100.00;100712.22;10374656;28;20049;-77
2023/03/17 03:23:05;;;;;;;7.38;4.00;;;;;;;5.15;100.00;100699.19;10364249;28;20058;-77
2023/03/17 03:28:06;;;;;;;7.38;3.55;;;;;;;5.12;100.00;100678.59;10353162;28;20034;-77
2023/03/17 03:33:07;;;;;;;5.65;3.47;;;;;;;5.35;100.00;100672.50;10337202;28;20169;-77
2023/03/17 03:38:07;;;;;;;5.85;3.15;;;;;;;5.30;100.00;100658.72;10356341;28;20052;-77
2023/03/17 03:43:08;;;;;;;8.98;3.60;;;;;;;5.40;100.00;100664.50;10414834;28;20116;-78
2023/03/17 03:48:08;;;;;;;6.13;3.28;;;;;;;5.42;100.00;100673.31;10432750;28;20061;-77
2023/03/17 03:53:09;;;;;;;4.30;3.08;;;;;;;5.40;100.00;100682.78;10392612;28;20045;-77
2023/03/17 03:58:10;;;;;;;3.97;3.03;;;;;;;5.39;100.00;100700.22;10389164;28;20029;-73
2023/03/17 04:03:10;;;;;;;4.85;3.40;;;;;;;5.10;100.00;100628.06;10375368;28;20640;-78
2023/03/17 04:08:11;;;;;;;4.93;2.97;;;;;;;5.44;100.00;100676.63;10390201;28;20049;-78
2023/03/17 04:13:12;;;;;;;6.82;3.28;;;;;;;5.40;100.00;100666.41;10406624;28;20076;-77
2023/03/17 04:18:13;;;;;;;5.85;2.97;;;;;;;5.46;100.00;100660.88;10374327;28;20037;-77
2023/03/17 04:23:13;;;;;;;8.00;2.60;;;;;;;5.39;100.00;100673.72;10364017;28;20128;-77
2023/03/17 04:28:14;;;;;;;7.07;4.18;;;;;;;5.29;100.00;100684.31;10389565;28;20041;-77
2023/03/17 04:33:14;;;;;;;6.53;3.20;;;;;;;5.26;100.00;100668.41;10404982;28;20044;-77
2023/03/17 04:38:15;;;;;;;4.78;2.72;;;;;;;5.16;100.00;100655.28;10374072;28;20052;-77
2023/03/17 04:43:15;;;;;;;4.30;2.90;;;;;;;5.28;100.00;100665.47;10387600;28;20410;-77
2023/03/17 04:48:16;;;;;;;6.30;3.50;;;;;;;5.28;100.00;100663.56;10379664;28;20033;-77
2023/03/17 04:53:16;;;;;;;5.90;2.90;;;;;;;5.29;100.00;100676.13;10390798;28;20060;-77
2023/03/17 04:58:17;;;;;;;5.88;2.95;;;;;;;5.21;100.00;100666.38;10388792;28;20107;-71
2023/03/17 05:03:18;;;;;;;6.63;2.83;;;;;;;5.21;100.00;100673.72;10388904;28;20056;-77
2023/03/17 05:08:19;;;;;;;3.92;2.80;;;;;;;5.10;100.00;100686.19;10405715;28;20033;-76
2023/03/17 05:13:20;;;;;;;4.70;3.30;;;;;;;5.05;100.00;100686.03;10355585;28;20065;-77
2023/03/17 05:18:22;;;;;;;6.43;3.00;;;;;;;4.94;100.00;100668.50;10362603;28;20058;-76
2023/03/17 05:23:22;;;;;;;5.47;2.80;;;;;;;4.80;100.00;100653.28;10354097;28;20041;-77
2023/03/17 05:28:23;;;;;;;5.25;2.78;;;;;;;4.76;100.00;100657.50;10384470;28;20498;-77
2023/03/17 05:33:24;;;;;;;3.97;2.72;;;;;;;4.82;100.00;100673.00;10347946;28;20069;-78
2023/03/17 05:38:24;;;;;;;6.80;3.38;;;;;;;4.95;100.00;100686.50;10352993;28;20030;-77
2023/03/17 05:43:25;;;;;;;5.15;3.20;;;;;;;5.00;100.00;100670.34;10361449;28;20045;-73
2023/03/17 05:48:25;;;;;;;5.72;3.45;;;;;;;5.19;100.00;100678.56;10395861;28;20120;-76
2023/03/17 05:53:26;;;;;;;4.65;2.83;;;;;;;5.19;100.00;100686.75;10410182;28;20050;-77
2023/03/17 05:58:26;;;;;;;5.32;2.85;;;;;;;5.30;100.00;100686.00;10391790;28;20100;-77
2023/03/17 06:03:27;;;;;;;7.25;3.63;;;;;;;5.34;100.00;100675.50;10411156;28;20034;-77
2023/03/17 06:08:29;;;;;;;5.03;3.58;;;;;;;5.42;100.00;100665.09;10394940;28;20049;-78
2023/03/17 06:13:30;;;;;;;6.65;3.17;;;;;;;5.57;100.00;100674.84;10394748;28;20045;-78
2023/03/17 06:18:30;;;;;;;5.38;2.78;;;;;;;5.62;100.00;100677.72;10376922;28;20517;-77
2023/03/17 06:23:31;;;;;;;7.03;2.92;;;;;;;5.73;100.00;100678.88;10393690;28;20041;-77
2023/03/17 06:28:31;;;;;;;3.80;2.67;;;;;;;5.70;100.00;100690.25;10412172;28;20041;-77
2023/03/17 06:33:33;;;;;;;6.35;3.10;;;;;;;5.69;100.00;100678.50;10392112;28;20064;-76
2023/03/17 06:38:33;;;;;;;5.07;3.30;;;;;;;5.82;100.00;100699.34;10410655;28;20033;-76
2023/03/17 06:43:35;;;;;;;4.90;3.08;;;;;;;5.88;100.00;100692.16;10409573;28;20096;-77
2023/03/17 06:48:35;;;;;;;3.63;2.60;;;;;;;5.91;100.00;100653.44;10334590;28;20058;-78
2023/03/17 06:53:36;;;;;;;5.18;3.25;;;;;;;6.19;100.00;100669.31;10335401;28;20084;-78
2023/03/17 06:58:36;;;;;;;4.63;2.55;;;;;;;6.32;100.00;100658.19;10336431;28;20084;-75
2023/03/17 07:03:37;;;;;;;4.00;2.38;;;;;;;6.57;100.00;100655.28;10351437;28;20057;-78
2023/03/17 07:08:38;;;;;;;5.95;2.80;;;;;;;6.64;100.00;100645.09;10368600;28;20052;-77
2023/03/17 07:13:39;;;;;;;4.70;2.60;;;;;;;6.60;100.00;100621.19;10351410;28;20465;-78
2023/03/17 07:18:40;;;;;;;3.90;2.40;;;;;;;6.67;100.00;100595.38;10352044;28;20046;-76
2023/03/17 07:23:40;;;;;;;4.07;2.50;;;;;;;6.67;100.00;100608.22;10336457;28;20033;-77
2023/03/17 07:28:41;;;;;;;10.05;3.20;;;;;;;6.94;100.00;100663.34;10348066;28;20168;-77
2023/03/17 07:33:41;;;;;;;5.43;2.78;;;;;;;7.07;100.00;100663.16;10333871;28;20050;-78
2023/03/17 07:38:42;;;;;;;3.95;2.63;;;;;;;7.35;100.00;100664.34;10407765;28;20417;-78
2023/03/17 07:43:43;;;;;;;8.60;3.17;;;;;;;7.43;100.00;100674.94;10408416;28;20041;-77
2023/03/17 07:48:43;;;;;;;3.60;2.83;;;;;;;7.50;100.00;100679.47;10390131;28;20030;-77
2023/03/17 07:53:45;;;;;;;5.05;2.63;;;;;;;7.39;100.00;100679.22;10378714;28;20034;-76
2023/03/17 07:58:46;;;;;;;5.75;2.35;;;;;;;7.38;100.00;100671.25;10365298;28;20379;-78
2023/03/17 08:03:46;;;;;;;3.90;2.08;;;;;;;7.60;100.00;100649.56;10333071;28;20038;-77
2023/03/17 08:08:47;;;;;;;4.18;2.58;;;;;;;7.91;100.00;100636.53;10365464;28;20037;-77
2023/03/17 08:13:48;;;;;;;4.70;3.38;;;;;;;8.22;100.00;100627.81;10349398;28;20514;-77
2023/03/17 08:18:49;;;;;;;6.68;2.60;;;;;;;8.34;100.00;100605.00;10349508;28;20042;-77
2023/03/17 08:23:49;;;;;;;5.32;2.65;;;;;;;8.81;100.00;100615.75;10350248;28;20049;-77
2023/03/17 08:28:50;;;;;;;3.60;2.20;;;;;;;9.12;100.00;100597.03;10349783;28;20038;-71
2023/03/17 08:33:52;;;;;;;3.78;2.80;;;;;;;9.41;100.00;100579.31;10332751;28;20697;-77
2023/03/17 08:38:52;;;;;;;3.88;2.63;;;;;;;9.93;100.00;100590.97;10402674;28;20042;-78
2023/03/17 08:43:53;;;;;;;3.85;2.13;;;;;;;10.17;100.00;100573.09;10411838;28;20048;-78
2023/03/17 08:48:55;;;;;;;4.75;2.30;;;;;;;10.33;100.00;100565.00;10430665;28;20056;-78
2023/03/17 08:53:55;;;;;;;4.45;2.67;;;;;;;10.37;100.00;100577.16;10414782;28;20044;-78
2023/03/17 08:58:56;;;;;;;5.50;2.35;;;;;;;10.46;100.00;100570.09;10356539;28;20065;-78
2023/03/17 09:03:56;;;;;;;4.93;2.50;;;;;;;10.78;100.00;100572.84;10340166;28;20061;-78
2023/03/17 09:08:57;;;;;;;9.52;2.55;;;;;;;10.82;100.00;100575.91;10385120;28;20053;-78
2023/03/17 09:13:58;;;;;;;3.70;2.30;;;;;;;11.00;100.00;100582.94;10373538;28;20042;-78
2023/03/17 09:18:58;;;;;;;5.30;2.10;;;;;;;11.21;100.00;100597.69;10391572;28;20109;-78
2023/03/17 09:23:58;;;;;;;6.00;2.47;;;;;;;11.40;100.00;100601.66;10377089;28;20128;-78
2023/03/17 09:28:59;;;;;;;5.13;2.20;;;;;;;11.73;100.00;100594.09;10378645;28;20057;-78
2023/03/17 09:33:59;;;;;;;6.15;2.50;;;;;;;11.76;100.00;100610.13;10414946;28;20033;-77
2023/03/17 09:39:00;;;;;;;4.10;2.80;;;;;;;11.77;100.00;100603.50;10395780;28;20485;-78
2023/03/17 09:44:16;;;;;;;4.60;2.63;;;;;;;12.03;100.00;100609.13;10362968;28;20124;-77
2023/03/17 09:49:26;;;;;;;4.88;2.78;;;;;;;12.46;100.00;100604.28;10396994;28;20101;-77
2023/03/17 09:54:31;;;;;;;10.63;2.72;;;;;;;12.88;100.00;100581.94;10395750;28;20045;-77
2023/03/17 09:59:37;;;;;;;4.55;2.28;;;;;;;13.24;100.00;100590.19;10346719;28;20033;-78
2023/03/17 10:04:41;;;;;;;6.27;2.57;;;;;;;13.52;100.00;100597.09;10355369;28;20533;-76
2023/03/17 10:09:52;;;;;;;4.30;2.55;;;;;;;13.60;100.00;100587.38;10363255;28;20042;-76
2023/03/17 10:15:03;;;;;;;4.13;2.30;;;;;;;13.67;100.00;100593.44;10378624;28;20080;-77
2023/03/17 10:20:07;;;;;;;5.55;2.65;;;;;;;13.88;100.00;100588.66;10412318;28;20050;-78
2023/03/17 10:25:20;;;;;;;8.50;2.80;;;;;;;13.86;100.00;100599.16;10409357;28;20040;-78
2023/03/17 10:30:22;;;;;;;5.10;2.42;;;;;;;14.12;100.00;100576.91;10411269;28;20043;-78
2023/03/17 10:35:23;;;;;;;4.28;2.50;;;;;;;14.17;100.00;100589.91;10410204;28;20068;-78
2023/03/17 10:40:25;;;;;;;4.50;2.63;;;;;;;14.27;100.00;100590.66;10410341;28;20037;-77
2023/03/17 10:45:30;;;;;;;5.10;2.72;;;;;;;14.58;100.00;100550.91;10395233;28;20041;-77
2023/03/17 10:50:32;;;;;;;6.85;3.35;;;;;;;14.80;100.00;100569.81;10394362;28;20563;-78
2023/03/17 10:55:41;;;;;;;5.60;2.45;;;;;;;14.91;100.00;100554.75;10393147;28;20048;-77
2023/03/17 11:00:55;;;;;;;7.03;2.97;;;;;;;15.09;100.00;100562.34;10409101;28;20072;-77
2023/03/17 11:06:04;;;;;;;4.25;2.90;;;;;;;15.31;99.61;100541.59;10409942;28;20144;-77
2023/03/17 11:11:07;;;;;;;5.53;2.72;;;;;;;15.47;99.41;100548.63;10409929;28;20029;-77
2023/03/17 11:16:16;;;;;;;7.65;2.90;;;;;;;15.44;96.58;100540.06;10358350;28;20040;-78
2023/03/17 11:21:22;;;;;;;6.55;3.10;;;;;;;15.58;98.30;100523.53;10336709;28;20045;-77
2023/03/17 11:26:52;;;;;;;5.35;3.10;;;;;;;15.47;98.28;100551.41;10319797;28;20107;-77
2023/03/17 11:32:17;;;;;;;4.88;2.60;;;;;;;15.36;97.17;100549.88;10434223;28;20048;-78
2023/03/17 11:37:24;;;;;;;8.20;3.55;;;;;;;15.24;97.98;100566.91;10365029;28;20046;-76
2023/03/17 11:42:26;;;;;;;5.82;3.65;;;;;;;14.87;100.00;100570.31;10367667;28;20038;-77
2023/03/17 11:47:30;;;;;;;10.07;3.70;;;;;;;15.09;100.00;100583.72;10362993;28;20172;-77
2023/03/17 11:52:37;;;;;;;6.53;3.35;;;;;;;14.90;99.84;100589.97;10394495;28;20055;-77
2023/03/17 11:57:54;;;;;;;7.68;3.15;;;;;;;15.07;98.79;100606.19;10408641;28;20041;-77
2023/03/17 12:03:16;;;;;;;5.68;3.33;;;;;;;15.58;97.42;100604.00;10407822;28;20048;-78
2023/03/17 12:08:41;;;;;;;10.88;3.70;;;;;;;15.88;95.53;100577.88;10367303;28;20038;-77
2023/03/17 12:13:45;;;;;;;7.00;3.40;;;;;;;15.93;94.40;100569.47;10407364;28;20042;-77
2023/03/17 12:18:58;;;;;;;7.50;3.72;;;;;;;17.01;93.65;100565.91;10419554;28;20051;-76
2023/03/17 12:24:01;;;;;;;6.60;3.38;;;;;;;17.86;87.79;100516.38;10381868;28;20036;-77
2023/03/17 12:29:03;;;;;;;7.63;3.88;;;;;;;18.84;86.25;100575.44;10373009;28;20053;-77
2023/03/17 12:34:20;;;;;;;8.07;3.88;;;;;;;19.70;82.95;100580.69;10406979;28;20037;-77
2023/03/17 12:39:27;;;;;;;7.97;4.13;;;;;;;19.82;81.54;100573.66;10366054;28;20045;-77
2023/03/17 12:44:52;;;;;;;10.23;4.65;;;;;;;19.35;80.82;100585.28;10348592;28;20038;-77
2023/03/17 12:50:24;;;;;;;7.57;4.32;;;;;;;18.93;82.91;100593.06;10388965;28;20049;-76
2023/03/17 12:55:26;;;;;;;5.18;3.40;;;;;;;18.55;83.84;100587.81;10403486;28;20057;-77
2023/03/17 13:00:36;;;;;;;7.13;4.55;;;;;;;17.78;84.30;100581.13;10376988;28;20054;-77
2023/03/17 13:05:36;;;;;;;8.73;4.45;;;;;;;17.28;84.85;100565.13;10402547;28;20042;-76
2023/03/17 13:10:46;;;;;;;9.63;4.30;;;;;;;16.93;87.70;100586.91;10389369;28;20041;-76
2023/03/17 13:15:49;;;;;;;7.22;4.30;;;;;;;16.70;87.61;100587.78;10373322;28;20042;-76
2023/03/17 13:20:51;;;;;;;7.63;4.18;;;;;;;16.58;89.35;100593.81;10404552;28;20044;-77
2023/03/17 13:25:52;;;;;;;6.05;3.50;;;;;;;16.69;91.03;100581.41;10403522;28;20095;-76
2023/03/17 13:30:55;;;;;;;7.13;3.90;;;;;;;17.11;87.70;100564.88;10389247;28;20034;-76
2023/03/17 13:36:05;;;;;;;7.10;3.97;;;;;;;18.04;87.09;100584.22;10390219;28;20038;-76
2023/03/17 13:41:12;;;;;;;6.53;4.07;;;;;;;18.64;86.64;100579.53;10341319;28;20433;-76
2023/03/17 13:46:37;;;;;;;9.60;4.15;;;;;;;18.61;85.14;100574.59;10373187;28;20034;-80
2023/03/17 13:51:38;;;;;;;8.30;4.43;;;;;;;17.92;84.02;100564.44;10403629;28;20056;-77
2023/03/17 13:56:42;;;;;;;7.78;4.13;;;;;;;18.17;85.84;100585.34;10372603;28;20029;-75
2023/03/17 14:01:47;;;;;;;8.00;4.72;;;;;;;18.39;85.32;100567.03;10412270;28;20071;-75
2023/03/17 14:06:49;;;;;;;8.20;4.70;;;;;;;18.22;85.24;100565.72;10371660;28;20092;-75
2023/03/17 14:11:50;;;;;;;9.70;4.88;;;;;;;17.73;86.21;100556.16;10347671;28;20044;-76
2023/03/17 14:16:55;;;;;;;10.55;3.90;;;;;;;17.39;89.23;100549.06;10362755;28;20044;-76
2023/03/17 14:22:03;;;;;;;7.07;4.47;;;;;;;17.21;89.60;100563.88;10410278;28;20127;-76
2023/03/17 14:27:08;;;;;;;7.65;4.45;;;;;;;17.49;90.17;100564.75;10393987;28;20133;-76
2023/03/17 14:32:13;;;;;;;23.65;5.72;;;;;;;18.00;89.57;100579.59;10412613;28;20042;-75
2023/03/17 14:37:14;;;;;;;7.82;4.80;;;;;;;17.91;87.34;100571.97;10393731;28;20049;-77
2023/03/17 14:42:14;;;;;;;6.95;4.22;;;;;;;17.62;89.61;100572.25;10410034;28;20171;-76
2023/03/17 14:47:19;;;;;;;10.73;4.55;;;;;;;17.14;91.04;100564.28;10375593;28;20050;-76
2023/03/17 14:52:23;;;;;;;7.65;4.13;;;;;;;16.80;91.96;100581.25;10393364;28;20053;-76
2023/03/17 14:57:31;;;;;;;14.25;4.55;;;;;;;16.48;94.93;100574.53;10369020;28;20060;-76
2023/03/17 15:02:35;;;;;;;7.47;4.10;;;;;;;16.28;94.11;100548.69;10321623;28;20532;-75
2023/03/17 15:07:39;;;;;;;6.38;4.28;;;;;;;16.23;96.90;100539.63;10335751;28;20040;-76
2023/03/17 15:12:40;;;;;;;8.50;4.65;;;;;;;16.19;97.53;100547.72;10378607;28;20045;-76
2023/03/17 15:17:40;;;;;;;6.80;4.50;;;;;;;16.07;98.01;100555.69;10408405;28;20429;-76
2023/03/17 15:22:45;;;;;;;11.82;4.20;;;;;;;15.80;99.86;100543.25;10375614;28;20053;-76
2023/03/17 15:27:46;;;;;;;9.63;4.90;;;;;;;15.58;99.95;100567.94;10411591;28;20083;-77
2023/03/17 15:33:00;;;;;;;6.82;4.35;;;;;;;15.30;100.00;100564.91;10393500;28;20025;-76
2023/03/17 15:38:00;;;;;;;11.63;5.57;;;;;;;15.08;100.00;100571.78;10407136;28;20037;-76
2023/03/17 15:43:00;;;;;;;7.55;4.53;;;;;;;14.96;100.00;100563.00;10407772;28;20049;-79
2023/03/17 15:48:01;;;;;;;8.40;4.65;;;;;;;14.70;100.00;100543.03;10374725;28;20045;-76
2023/03/17 15:53:02;;;;;;;14.88;5.05;;;;;;;14.59;100.00;100564.44;10397465;28;20038;-76
2023/03/17 15:58:03;;;;;;;10.80;5.22;;;;;;;14.39;100.00;100559.03;10349755;28;20120;-76
2023/03/17 16:03:07;;;;;;;8.45;4.95;;;;;;;14.29;100.00;100560.75;10349557;28;20396;-76
2023/03/17 16:08:17;;;;;;;8.77;4.88;;;;;;;14.25;100.00;100564.38;10367832;28;20042;-77
2023/03/17 16:13:18;;;;;;;7.72;5.43;;;;;;;14.18;100.00;100573.00;10388328;28;20041;-76
2023/03/17 16:18:18;;;;;;;10.32;5.05;;;;;;;14.16;100.00;100591.00;10349623;28;20038;-76
2023/03/17 16:23:21;;;;;;;12.38;5.72;;;;;;;14.08;100.00;100593.25;10378506;28;20113;-77
2023/03/17 16:28:23;;;;;;;8.15;4.75;;;;;;;14.01;100.00;100597.44;10407354;28;20055;-76
2023/03/17 16:33:25;;;;;;;7.78;4.80;;;;;;;13.88;100.00;100596.94;10406692;28;20029;-76
2023/03/17 16:38:27;;;;;;;8.40;4.68;;;;;;;13.75;100.00;100585.69;10404989;28;20045;-76
2023/03/17 16:43:29;;;;;;;8.88;4.90;;;;;;;13.60;100.00;100597.59;10370803;28;20033;-77
2023/03/17 16:48:30;;;;;;;10.55;5.18;;;;;;;13.43;100.00;100593.22;10404176;28;20072;-76
2023/03/17 16:53:30;;;;;;;9.93;5.32;;;;;;;13.27;100.00;100605.38;10407936;28;20045;-76
2023/03/17 16:58:32;;;;;;;9.45;4.85;;;;;;;13.06;100.00;100591.63;10408828;28;20045;-78
2023/03/17 17:03:36;;;;;;;10.57;4.63;;;;;;;12.87;100.00;100596.03;10404973;28;20101;-78
2023/03/17 17:08:37;;;;;;;9.75;4.78;;;;;;;12.66;100.00;100586.91;10405469;28;20508;-80
2023/03/17 17:13:39;;;;;;;10.45;5.10;;;;;;;12.61;100.00;100609.84;10373139;28;20038;-80
2023/03/17 17:18:39;;;;;;;12.93;6.07;;;;;;;12.38;100.00;100604.81;10402728;28;20042;-79
2023/03/17 17:23:40;;;;;;;11.13;5.65;;;;;;;12.19;100.00;100613.59;10426188;28;20061;-77
2023/03/17 17:28:40;;;;;;;9.38;5.28;;;;;;;11.72;100.00;100559.38;10432960;28;20061;-77
2023/03/17 17:33:41;;;;;;;10.43;5.80;;;;;;;11.89;100.00;100612.41;10442004;28;20044;-79
2023/03/17 17:38:41;;;;;;;8.82;5.55;;;;;;;11.80;100.00;100616.75;10437851;28;20095;-79
2023/03/17 17:43:42;;;;;;;11.73;5.97;;;;;;;11.75;100.00;100621.41;10437342;28;20031;-79
2023/03/17 17:48:43;;;;;;;10.80;5.75;;;;;;;11.57;100.00;100600.63;10437458;28;20037;-79
2023/03/17 17:53:43;;;;;;;10.38;5.82;;;;;;;11.56;100.00;100615.53;10421106;28;20045;-78
2023/03/17 17:58:44;;;;;;;11.45;6.05;;;;;;;11.43;100.00;100606.63;10423683;28;20045;-79
2023/03/17 18:03:44;;;;;;;13.93;6.22;;;;;;;11.43;100.00;100617.66;10419982;28;20449;-79
2023/03/17 18:08:45;;;;;;;11.45;6.65;;;;;;;11.26;100.00;100611.47;10436255;28;20033;-79
2023/03/17 18:13:45;;;;;;;10.70;6.57;;;;;;;11.24;100.00;100635.72;10454673;28;20037;-79
2023/03/17 18:18:46;;;;;;;13.35;6.95;;;;;;;11.20;100.00;100643.66;10420046;28;20041;-78
2023/03/17 18:23:47;;;;;;;10.15;6.22;;;;;;;11.10;100.00;100633.41;10436750;28;20040;-80
2023/03/17 18:28:48;;;;;;;13.05;6.70;;;;;;;10.93;100.00;100607.09;10451692;28;20033;-79
2023/03/17 18:33:50;;;;;;;10.48;6.18;;;;;;;10.98;100.00;100630.03;10418571;28;20063;-79
2023/03/17 18:38:51;;;;;;;13.27;7.25;;;;;;;10.79;100.00;100620.47;10423960;28;20072;-79
2023/03/17 18:43:51;;;;;;;17.75;8.18;;;;;;;10.77;100.00;100633.66;10379003;28;20049;-79
2023/03/17 18:48:52;;;;;;;10.32;6.72;;;;;;;10.55;100.00;100618.06;10405471;28;20064;-79
2023/03/17 18:53:53;;;;;;;12.98;7.38;;;;;;;10.52;100.00;100624.06;10452067;28;20033;-79
2023/03/17 18:58:55;;;;;;;12.10;6.82;;;;;;;10.42;100.00;100624.00;10434238;28;20064;-74
2023/03/17 19:03:55;;;;;;;11.88;7.20;;;;;;;10.42;100.00;100629.50;10450262;28;20045;-70
2023/03/17 19:08:57;;;;;;;14.57;7.72;;;;;;;10.38;100.00;100617.34;10402216;28;20044;-79
2023/03/17 19:13:58;;;;;;;13.65;8.02;;;;;;;10.32;100.00;100607.38;10394013;28;20050;-79
2023/03/17 19:18:58;;;;;;;14.95;7.80;;;;;;;10.29;100.00;100609.56;10438297;28;20072;-79
2023/03/17 19:23:59;;;;;;;12.65;7.78;;;;;;;10.28;100.00;100621.63;10410318;28;20037;-79
2023/03/17 19:29:00;;;;;;;12.65;8.38;;;;;;;10.21;100.00;100607.25;10417134;28;20029;-79
2023/03/17 19:34:00;;;;;;;11.07;7.60;;;;;;;10.28;100.00;100616.09;10448149;28;20041;-78
2023/03/17 19:39:02;;;;;;;16.98;9.32;;;;;;;10.21;100.00;100601.75;10413967;28;20402;-78
2023/03/17 19:44:05;;;;;;;14.65;9.07;;;;;;;10.28;100.00;100613.34;10444293;28;20092;-80
2023/03/17 19:49:05;;;;;;;12.38;7.43;;;;;;;10.25;100.00;100608.38;10411420;28;20048;-79
2023/03/17 19:54:08;;;;;;;12.13;7.45;;;;;;;10.17;100.00;100588.75;10449214;28;20051;-79
2023/03/17 19:59:09;;;;;;;12.60;7.35;;;;;;;10.19;100.00;100595.66;10413914;28;20041;-80
2023/03/17 20:04:12;;;;;;;15.70;7.80;;;;;;;10.15;100.00;100589.03;10430039;28;20029;-79
2023/03/17 20:09:13;;;;;;;13.30;8.32;;;;;;;10.12;100.00;100592.28;10446333;28;20040;-79
2023/03/17 20:14:13;;;;;;;14.30;8.48;;;;;;;10.01;100.00;100582.25;10430220;28;20063;-79
2023/03/17 20:19:14;;;;;;;13.75;7.68;;;;;;;9.52;100.00;100527.25;10393309;28;20038;-80
2023/03/17 20:24:15;;;;;;;17.73;8.23;;;;;;;9.93;100.00;100578.03;10373535;28;20073;-80
2023/03/17 20:29:16;;;;;;;13.23;7.53;;;;;;;9.93;100.00;100590.97;10353787;28;20129;-78
2023/03/17 20:34:16;;;;;;;16.10;8.05;;;;;;;9.91;100.00;100580.22;10388971;28;20033;-80
2023/03/17 20:39:20;;;;;;;16.02;7.78;;;;;;;9.87;100.00;100593.63;10407776;28;20049;-79
2023/03/17 20:44:21;;;;;;;16.38;8.23;;;;;;;9.80;100.00;100582.00;10335572;28;20034;-79
2023/03/17 20:49:22;;;;;;;15.90;8.80;;;;;;;9.76;100.00;100580.88;10386662;28;20052;-78
2023/03/17 20:54:22;;;;;;;15.68;8.95;;;;;;;9.55;100.00;100577.03;10387629;28;21452;-79
2023/03/17 20:59:23;;;;;;;15.77;8.95;;;;;;;9.49;100.00;100600.03;10320160;28;20049;-79
2023/03/17 21:04:24;;;;;;;16.15;8.90;;;;;;;9.33;100.00;100588.00;10354595;28;20073;-80
2023/03/17 21:09:24;;;;;;;18.85;9.32;;;;;;;9.14;100.00;100579.22;10366657;28;20083;-78
2023/03/17 21:14:25;;;;;;;15.27;9.57;;;;;;;9.14;100.00;100586.63;10367267;28;20087;-79
2023/03/17 21:19:26;;;;;;;15.70;9.55;;;;;;;8.98;100.00;100569.91;10371612;28;20564;-77
2023/03/17 21:24:30;;;;;;;19.85;9.30;;;;;;;8.89;100.00;100568.66;10365330;28;20037;-79
2023/03/17 21:29:31;;;;;;;19.67;10.73;;;;;;;8.90;100.00;100575.81;10366282;28;20041;-79
2023/03/17 21:34:32;;;;;;;20.52;10.80;;;;;;;8.95;100.00;100588.78;10381225;28;20135;-80
2023/03/17 21:39:32;;;;;;;20.30;11.15;;;;;;;8.95;100.00;100588.78;10381260;28;20042;-79
2023/03/17 21:44:33;;;;;;;19.42;11.05;;;;;;;8.97;100.00;100589.34;10373698;28;20038;-78
2023/03/17 21:49:34;;;;;;;18.25;11.13;;;;;;;8.55;100.00;100529.41;10381921;28;20045;-78
2023/03/17 21:54:34;;;;;;;17.55;10.38;;;;;;;8.87;100.00;100590.06;10379587;28;20543;-78
2023/03/17 21:59:35;;;;;;;22.08;10.68;;;;;;;8.75;100.00;100583.81;10380596;28;20430;-78
2023/03/17 22:04:36;;;;;;;22.95;11.88;;;;;;;8.74;100.00;100565.66;10405096;28;20048;-79
2023/03/17 22:09:36;;;;;;;22.75;11.40;;;;;;;8.78;100.00;100561.34;10347613;28;20077;-79
2023/03/17 22:14:37;;;;;;;17.10;11.32;;;;;;;8.75;100.00;100578.31;10385886;28;20048;-79
2023/03/17 22:19:40;;;;;;;21.13;11.57;;;;;;;8.77;100.00;100576.16;10392127;28;20076;-79
2023/03/17 22:24:41;;;;;;;20.65;13.15;;;;;;;8.80;100.00;100581.13;10375571;28;20125;-79
2023/03/17 22:29:42;;;;;;;20.88;12.55;;;;;;;8.86;100.00;100580.13;10389067;28;20056;-79
2023/03/17 22:34:42;;;;;;;21.85;11.98;;;;;;;8.93;100.00;100575.31;10372129;28;20042;-79
2023/03/17 22:39:43;;;;;;;18.05;11.60;;;;;;;8.88;100.00;100553.25;10373769;28;20042;-79
2023/03/17 22:44:43;;;;;;;18.80;11.52;;;;;;;9.13;100.00;100571.22;10375144;28;20068;-78
2023/03/17 22:49:44;;;;;;;16.30;11.18;;;;;;;9.15;100.00;100571.78;10374203;28;20035;-78
2023/03/17 22:54:45;;;;;;;24.10;11.70;;;;;;;9.18;100.00;100574.03;10386902;28;20049;-80
2023/03/17 22:59:45;;;;;;;24.13;12.00;;;;;;;9.28;100.00;100596.13;10368008;28;20120;-79